sensor_id;sensor_type;location;lat;lon;timestamp;temperature;humidity
64705;DHT22;51131;52.298;13.686;2023-04-01T00:02:21;18.80;62.30
64705;DHT22;51131;52.298;13.686;2023-04-01T00:04:48;18.80;62.40
64705;DHT22;51131;52.298;13.686;2023-04-01T00:07:15;18.80;63.10
64705;DHT22;51131;52.298;13.686;2023-04-01T00:09:41;18.80;62.30
64705;DHT22;51131;52.298;13.686;2023-04-01T00:12:08;18.90;62.50
64705;DHT22;51131;52.298;13.686;2023-04-01T00:14:35;18.70;62.50
64705;DHT22;51131;52.298;13.686;2023-04-01T00:17:03;18.70;62.60
64705;DHT22;51131;52.298;13.686;2023-04-01T00:19:30;18.70;62.40
64705;DHT22;51131;52.298;13.686;2023-04-01T00:21:58;18.70;62.40
64705;DHT22;51131;52.298;13.686;2023-04-01T00:24:25;18.70;62.50
64705;DHT22;51131;52.298;13.686;2023-04-01T00:26:51;18.70;62.40
64705;DHT22;51131;52.298;13.686;2023-04-01T00:29:18;18.70;62.30
64705;DHT22;51131;52.298;13.686;2023-04-01T00:31:44;18.70;62.40
64705;DHT22;51131;52.298;13.686;2023-04-01T00:34:11;18.60;62.40
64705;DHT22;51131;52.298;13.686;2023-04-01T00:36:38;18.60;62.60
64705;DHT22;51131;52.298;13.686;2023-04-01T00:39:05;18.70;62.70
64705;DHT22;51131;52.298;13.686;2023-04-01T00:41:31;18.60;62.70
64705;DHT22;51131;52.298;13.686;2023-04-01T00:46:44;18.60;62.60
64705;DHT22;51131;52.298;13.686;2023-04-01T00:49:11;18.60;62.30
64705;DHT22;51131;52.298;13.686;2023-04-01T00:51:38;18.70;62.30
64705;DHT22;51131;52.298;13.686;2023-04-01T00:54:06;18.60;62.30
64705;DHT22;51131;52.298;13.686;2023-04-01T00:56:34;18.60;62.50
64705;DHT22;51131;52.298;13.686;2023-04-01T00:59:06;18.90;62.80
64705;DHT22;51131;52.298;13.686;2023-04-01T01:01:35;18.60;62.40
64705;DHT22;51131;52.298;13.686;2023-04-01T01:04:02;18.60;62.50
64705;DHT22;51131;52.298;13.686;2023-04-01T01:06:46;18.60;62.30
64705;DHT22;51131;52.298;13.686;2023-04-01T01:11:42;18.60;62.40
64705;DHT22;51131;52.298;13.686;2023-04-01T01:14:12;18.70;62.30
64705;DHT22;51131;52.298;13.686;2023-04-01T01:16:44;18.60;62.40
64705;DHT22;51131;52.298;13.686;2023-04-01T01:27:07;18.60;62.70
64705;DHT22;51131;52.298;13.686;2023-04-01T01:29:52;18.60;62.10
64705;DHT22;51131;52.298;13.686;2023-04-01T01:34:53;18.70;63.00
64705;DHT22;51131;52.298;13.686;2023-04-01T01:37:22;18.80;62.30
64705;DHT22;51131;52.298;13.686;2023-04-01T01:39:54;18.80;62.60
64705;DHT22;51131;52.298;13.686;2023-04-01T01:42:22;18.90;62.50
64705;DHT22;51131;52.298;13.686;2023-04-01T01:44:50;19.40;62.80
64705;DHT22;51131;52.298;13.686;2023-04-01T01:47:18;18.90;62.30
64705;DHT22;51131;52.298;13.686;2023-04-01T01:49:45;18.80;62.30
64705;DHT22;51131;52.298;13.686;2023-04-01T01:52:12;18.80;62.00
64705;DHT22;51131;52.298;13.686;2023-04-01T01:54:52;18.80;62.30
64705;DHT22;51131;52.298;13.686;2023-04-01T01:57:22;18.80;62.30
64705;DHT22;51131;52.298;13.686;2023-04-01T01:59:49;18.80;62.10
64705;DHT22;51131;52.298;13.686;2023-04-01T02:02:18;18.80;62.30
64705;DHT22;51131;52.298;13.686;2023-04-01T02:04:46;18.90;62.50
64705;DHT22;51131;52.298;13.686;2023-04-01T02:07:18;19.10;62.90
64705;DHT22;51131;52.298;13.686;2023-04-01T02:09:46;18.70;62.50
64705;DHT22;51131;52.298;13.686;2023-04-01T02:12:14;18.70;62.60
64705;DHT22;51131;52.298;13.686;2023-04-01T02:14:50;18.60;62.50
64705;DHT22;51131;52.298;13.686;2023-04-01T02:17:19;18.70;62.40
64705;DHT22;51131;52.298;13.686;2023-04-01T02:19:53;18.70;62.30
64705;DHT22;51131;52.298;13.686;2023-04-01T02:22:23;18.70;62.30
64705;DHT22;51131;52.298;13.686;2023-04-01T02:24:52;18.70;62.40
64705;DHT22;51131;52.298;13.686;2023-04-01T02:27:20;19.20;62.90
64705;DHT22;51131;52.298;13.686;2023-04-01T02:29:47;18.70;62.70
64705;DHT22;51131;52.298;13.686;2023-04-01T02:32:13;18.60;62.20
64705;DHT22;51131;52.298;13.686;2023-04-01T02:34:40;18.60;62.50
64705;DHT22;51131;52.298;13.686;2023-04-01T02:37:07;18.60;62.50
64705;DHT22;51131;52.298;13.686;2023-04-01T02:39:34;18.60;62.40
64705;DHT22;51131;52.298;13.686;2023-04-01T02:42:01;18.60;62.40
64705;DHT22;51131;52.298;13.686;2023-04-01T02:44:27;18.60;62.50
64705;DHT22;51131;52.298;13.686;2023-04-01T02:46:54;18.60;62.40
64705;DHT22;51131;52.298;13.686;2023-04-01T02:49:21;18.60;62.30
64705;DHT22;51131;52.298;13.686;2023-04-01T02:51:47;18.70;62.30
64705;DHT22;51131;52.298;13.686;2023-04-01T02:54:14;18.60;62.40
64705;DHT22;51131;52.298;13.686;2023-04-01T02:56:41;18.60;62.40
64705;DHT22;51131;52.298;13.686;2023-04-01T02:59:07;18.60;62.50
64705;DHT22;51131;52.298;13.686;2023-04-01T03:01:34;18.60;62.40
64705;DHT22;51131;52.298;13.686;2023-04-01T03:04:01;18.60;62.50
64705;DHT22;51131;52.298;13.686;2023-04-01T03:06:27;18.60;62.50
64705;DHT22;51131;52.298;13.686;2023-04-01T03:08:54;18.60;62.50
64705;DHT22;51131;52.298;13.686;2023-04-01T03:11:21;18.60;62.40
64705;DHT22;51131;52.298;13.686;2023-04-01T03:13:47;18.60;62.40
64705;DHT22;51131;52.298;13.686;2023-04-01T03:16:15;18.60;62.60
64705;DHT22;51131;52.298;13.686;2023-04-01T03:18:41;18.50;62.50
64705;DHT22;51131;52.298;13.686;2023-04-01T03:21:12;18.60;62.70
64705;DHT22;51131;52.298;13.686;2023-04-01T03:23:38;18.60;62.30
64705;DHT22;51131;52.298;13.686;2023-04-01T03:26:05;18.60;62.80
64705;DHT22;51131;52.298;13.686;2023-04-01T03:28:32;18.70;62.80
64705;DHT22;51131;52.298;13.686;2023-04-01T03:30:58;18.80;62.40
64705;DHT22;51131;52.298;13.686;2023-04-01T03:33:25;18.80;62.50
64705;DHT22;51131;52.298;13.686;2023-04-01T03:35:51;18.80;62.30
64705;DHT22;51131;52.298;13.686;2023-04-01T03:38:18;18.90;62.30
64705;DHT22;51131;52.298;13.686;2023-04-01T03:40:45;18.90;62.10
64705;DHT22;51131;52.298;13.686;2023-04-01T03:43:12;18.90;62.20
64705;DHT22;51131;52.298;13.686;2023-04-01T03:45:49;18.90;62.10
64705;DHT22;51131;52.298;13.686;2023-04-01T03:48:16;18.80;62.20
64705;DHT22;51131;52.298;13.686;2023-04-01T03:50:43;18.90;62.20
64705;DHT22;51131;52.298;13.686;2023-04-01T03:53:10;18.80;62.30
64705;DHT22;51131;52.298;13.686;2023-04-01T03:55:37;18.70;62.70
64705;DHT22;51131;52.298;13.686;2023-04-01T03:58:04;18.60;62.50
64705;DHT22;51131;52.298;13.686;2023-04-01T04:00:31;18.60;62.40
64705;DHT22;51131;52.298;13.686;2023-04-01T04:02:58;18.70;62.50
64705;DHT22;51131;52.298;13.686;2023-04-01T04:05:25;19.20;62.90
64705;DHT22;51131;52.298;13.686;2023-04-01T04:07:52;18.70;62.30
64705;DHT22;51131;52.298;13.686;2023-04-01T04:10:19;18.60;62.20
64705;DHT22;51131;52.298;13.686;2023-04-01T04:12:46;18.70;62.30
64705;DHT22;51131;52.298;13.686;2023-04-01T04:15:12;18.70;62.40
64705;DHT22;51131;52.298;13.686;2023-04-01T04:17:39;19.00;62.50
64705;DHT22;51131;52.298;13.686;2023-04-01T04:20:06;18.70;62.30
64705;DHT22;51131;52.298;13.686;2023-04-01T04:22:33;18.70;62.30
64705;DHT22;51131;52.298;13.686;2023-04-01T04:24:59;19.00;62.50
64705;DHT22;51131;52.298;13.686;2023-04-01T04:27:26;18.70;62.20
64705;DHT22;51131;52.298;13.686;2023-04-01T04:29:53;18.60;62.10
64705;DHT22;51131;52.298;13.686;2023-04-01T04:32:19;18.70;62.30
64705;DHT22;51131;52.298;13.686;2023-04-01T04:34:46;18.70;62.40
64705;DHT22;51131;52.298;13.686;2023-04-01T04:37:13;18.60;62.50
64705;DHT22;51131;52.298;13.686;2023-04-01T04:39:39;18.60;62.30
64705;DHT22;51131;52.298;13.686;2023-04-01T04:42:06;18.70;62.10
64705;DHT22;51131;52.298;13.686;2023-04-01T04:44:33;18.60;62.30
64705;DHT22;51131;52.298;13.686;2023-04-01T04:47:00;18.70;62.20
64705;DHT22;51131;52.298;13.686;2023-04-01T04:49:27;18.60;62.20
64705;DHT22;51131;52.298;13.686;2023-04-01T04:51:54;18.60;63.00
64705;DHT22;51131;52.298;13.686;2023-04-01T04:54:21;18.60;62.30
64705;DHT22;51131;52.298;13.686;2023-04-01T04:56:47;18.60;62.40
64705;DHT22;51131;52.298;13.686;2023-04-01T04:59:14;18.60;62.30
64705;DHT22;51131;52.298;13.686;2023-04-01T05:01:41;18.60;62.40
64705;DHT22;51131;52.298;13.686;2023-04-01T05:04:07;18.60;62.20
64705;DHT22;51131;52.298;13.686;2023-04-01T05:06:34;18.60;62.10
64705;DHT22;51131;52.298;13.686;2023-04-01T05:09:01;18.60;62.10
64705;DHT22;51131;52.298;13.686;2023-04-01T05:11:27;18.60;62.20
64705;DHT22;51131;52.298;13.686;2023-04-01T05:13:54;18.70;62.60
64705;DHT22;51131;52.298;13.686;2023-04-01T05:16:21;18.70;62.70
64705;DHT22;51131;52.298;13.686;2023-04-01T05:18:48;18.80;62.80
64705;DHT22;51131;52.298;13.686;2023-04-01T05:21:14;18.70;62.50
64705;DHT22;51131;52.298;13.686;2023-04-01T05:23:41;18.90;62.80
64705;DHT22;51131;52.298;13.686;2023-04-01T05:26:10;19.10;62.50
64705;DHT22;51131;52.298;13.686;2023-04-01T05:28:37;19.00;62.10
64705;DHT22;51131;52.298;13.686;2023-04-01T05:31:05;19.00;62.00
64705;DHT22;51131;52.298;13.686;2023-04-01T05:33:32;19.00;61.90
64705;DHT22;51131;52.298;13.686;2023-04-01T05:36:05;18.90;61.90
64705;DHT22;51131;52.298;13.686;2023-04-01T05:38:32;18.90;61.90
64705;DHT22;51131;52.298;13.686;2023-04-01T05:40:59;18.90;62.10
64705;DHT22;51131;52.298;13.686;2023-04-01T05:43:26;18.90;62.00
64705;DHT22;51131;52.298;13.686;2023-04-01T05:45:53;18.90;62.10
64705;DHT22;51131;52.298;13.686;2023-04-01T05:48:19;18.80;62.00
64705;DHT22;51131;52.298;13.686;2023-04-01T05:50:46;18.80;61.90
64705;DHT22;51131;52.298;13.686;2023-04-01T05:53:13;19.30;62.50
64705;DHT22;51131;52.298;13.686;2023-04-01T05:55:39;19.00;62.50
64705;DHT22;51131;52.298;13.686;2023-04-01T05:58:06;18.80;62.30
64705;DHT22;51131;52.298;13.686;2023-04-01T06:00:33;19.00;62.70
64705;DHT22;51131;52.298;13.686;2023-04-01T06:02:59;18.70;62.30
64705;DHT22;51131;52.298;13.686;2023-04-01T06:05:30;18.70;62.20
64705;DHT22;51131;52.298;13.686;2023-04-01T06:07:58;18.70;62.40
64705;DHT22;51131;52.298;13.686;2023-04-01T06:10:36;18.70;62.70
64705;DHT22;51131;52.298;13.686;2023-04-01T06:13:06;18.70;62.50
64705;DHT22;51131;52.298;13.686;2023-04-01T06:15:44;18.70;62.30
64705;DHT22;51131;52.298;13.686;2023-04-01T06:21:01;18.70;62.20
64705;DHT22;51131;52.298;13.686;2023-04-01T06:26:15;18.50;62.50
64705;DHT22;51131;52.298;13.686;2023-04-01T06:36:37;18.70;62.40
64705;DHT22;51131;52.298;13.686;2023-04-01T06:41:51;18.80;62.90
64705;DHT22;51131;52.298;13.686;2023-04-01T06:44:28;18.90;63.00
64705;DHT22;51131;52.298;13.686;2023-04-01T06:49:48;18.90;63.00
64705;DHT22;51131;52.298;13.686;2023-04-01T06:52:19;18.80;63.10
64705;DHT22;51131;52.298;13.686;2023-04-01T06:54:51;18.80;64.20
64705;DHT22;51131;52.298;13.686;2023-04-01T06:57:24;18.80;66.70
64705;DHT22;51131;52.298;13.686;2023-04-01T06:59:55;18.80;66.30
64705;DHT22;51131;52.298;13.686;2023-04-01T07:04:54;18.80;66.60
64705;DHT22;51131;52.298;13.686;2023-04-01T07:10:17;18.80;69.50
64705;DHT22;51131;52.298;13.686;2023-04-01T07:12:47;18.70;68.20
64705;DHT22;51131;52.298;13.686;2023-04-01T07:15:22;18.90;69.10
64705;DHT22;51131;52.298;13.686;2023-04-01T07:17:59;18.80;67.90
64705;DHT22;51131;52.298;13.686;2023-04-01T07:20:35;18.80;68.10
64705;DHT22;51131;52.298;13.686;2023-04-01T07:23:04;18.70;67.70
64705;DHT22;51131;52.298;13.686;2023-04-01T07:25:37;18.80;68.50
64705;DHT22;51131;52.298;13.686;2023-04-01T07:28:05;18.60;67.70
64705;DHT22;51131;52.298;13.686;2023-04-01T07:30:37;18.60;68.10
64705;DHT22;51131;52.298;13.686;2023-04-01T07:33:13;18.60;68.00
64705;DHT22;51131;52.298;13.686;2023-04-01T07:35:52;18.60;68.50
64705;DHT22;51131;52.298;13.686;2023-04-01T07:38:26;18.70;68.80
64705;DHT22;51131;52.298;13.686;2023-04-01T07:46:27;18.60;71.50
64705;DHT22;51131;52.298;13.686;2023-04-01T07:54:11;18.70;66.80
64705;DHT22;51131;52.298;13.686;2023-04-01T07:56:45;18.80;67.80
64705;DHT22;51131;52.298;13.686;2023-04-01T07:59:26;18.80;67.00
64705;DHT22;51131;52.298;13.686;2023-04-01T08:07:10;18.90;67.60
64705;DHT22;51131;52.298;13.686;2023-04-01T08:09:42;18.80;69.00
64705;DHT22;51131;52.298;13.686;2023-04-01T08:12:18;18.80;68.80
64705;DHT22;51131;52.298;13.686;2023-04-01T08:17:23;18.80;68.90
64705;DHT22;51131;52.298;13.686;2023-04-01T08:19:56;18.70;67.80
64705;DHT22;51131;52.298;13.686;2023-04-01T08:22:26;18.70;67.80
64705;DHT22;51131;52.298;13.686;2023-04-01T08:24:56;18.70;69.10
64705;DHT22;51131;52.298;13.686;2023-04-01T08:27:37;18.70;70.30
64705;DHT22;51131;52.298;13.686;2023-04-01T08:32:39;18.70;70.00
64705;DHT22;51131;52.298;13.686;2023-04-01T08:37:43;18.70;70.30
64705;DHT22;51131;52.298;13.686;2023-04-01T08:40:25;18.60;70.10
64705;DHT22;51131;52.298;13.686;2023-04-01T08:43:02;18.60;69.00
64705;DHT22;51131;52.298;13.686;2023-04-01T08:45:44;18.60;68.00
64705;DHT22;51131;52.298;13.686;2023-04-01T08:51:08;18.60;68.70
64705;DHT22;51131;52.298;13.686;2023-04-01T08:56:26;18.60;68.80
64705;DHT22;51131;52.298;13.686;2023-04-01T09:04:14;18.50;68.10
64705;DHT22;51131;52.298;13.686;2023-04-01T09:15:00;18.60;69.80
64705;DHT22;51131;52.298;13.686;2023-04-01T09:23:19;18.60;68.10
64705;DHT22;51131;52.298;13.686;2023-04-01T09:26:07;18.60;67.20
64705;DHT22;51131;52.298;13.686;2023-04-01T09:36:56;18.90;68.00
64705;DHT22;51131;52.298;13.686;2023-04-01T09:39:34;19.00;67.20
64705;DHT22;51131;52.298;13.686;2023-04-01T09:42:23;19.00;67.30
64705;DHT22;51131;52.298;13.686;2023-04-01T09:45:00;19.00;67.80
64705;DHT22;51131;52.298;13.686;2023-04-01T09:47:45;18.90;68.00
64705;DHT22;51131;52.298;13.686;2023-04-01T09:53:36;18.90;69.30
64705;DHT22;51131;52.298;13.686;2023-04-01T10:03:27;18.90;68.80
64705;DHT22;51131;52.298;13.686;2023-04-01T10:06:12;18.90;69.10
64705;DHT22;51131;52.298;13.686;2023-04-01T10:14:15;18.80;69.50
64705;DHT22;51131;52.298;13.686;2023-04-01T10:30:19;18.70;73.30
64705;DHT22;51131;52.298;13.686;2023-04-01T10:33:09;18.70;70.60
64705;DHT22;51131;52.298;13.686;2023-04-01T10:40:57;18.80;68.90
64705;DHT22;51131;52.298;13.686;2023-04-01T10:43:31;19.20;69.20
64705;DHT22;51131;52.298;13.686;2023-04-01T10:46:13;19.10;68.60
64705;DHT22;51131;52.298;13.686;2023-04-01T10:48:47;19.00;67.90
64705;DHT22;51131;52.298;13.686;2023-04-01T10:51:25;19.00;67.40
64705;DHT22;51131;52.298;13.686;2023-04-01T11:17:56;18.70;69.60
64705;DHT22;51131;52.298;13.686;2023-04-01T11:28:47;18.70;69.40
64705;DHT22;51131;52.298;13.686;2023-04-01T11:39:11;18.70;69.60
64705;DHT22;51131;52.298;13.686;2023-04-01T11:41:43;18.60;68.40
64705;DHT22;51131;52.298;13.686;2023-04-01T11:44:25;18.60;69.90
64705;DHT22;51131;52.298;13.686;2023-04-01T11:47:01;18.60;68.50
64705;DHT22;51131;52.298;13.686;2023-04-01T11:52:23;18.60;68.50
64705;DHT22;51131;52.298;13.686;2023-04-01T11:54:59;18.60;71.60
64705;DHT22;51131;52.298;13.686;2023-04-01T11:57:42;18.60;70.00
64705;DHT22;51131;52.298;13.686;2023-04-01T12:02:48;18.60;67.20
64705;DHT22;51131;52.298;13.686;2023-04-01T12:05:23;18.70;68.60
64705;DHT22;51131;52.298;13.686;2023-04-01T12:10:59;18.80;67.80
64705;DHT22;51131;52.298;13.686;2023-04-01T12:18:41;18.80;69.70
64705;DHT22;51131;52.298;13.686;2023-04-01T12:31:42;18.70;68.00
64705;DHT22;51131;52.298;13.686;2023-04-01T12:34:28;18.70;68.50
64705;DHT22;51131;52.298;13.686;2023-04-01T12:37:08;18.60;68.30
64705;DHT22;51131;52.298;13.686;2023-04-01T12:45:23;18.60;68.90
64705;DHT22;51131;52.298;13.686;2023-04-01T12:53:00;18.50;67.10
64705;DHT22;51131;52.298;13.686;2023-04-01T12:58:14;18.50;69.30
64705;DHT22;51131;52.298;13.686;2023-04-01T13:01:00;18.50;68.00
64705;DHT22;51131;52.298;13.686;2023-04-01T13:03:34;18.50;67.60
64705;DHT22;51131;52.298;13.686;2023-04-01T13:06:18;18.50;67.80
64705;DHT22;51131;52.298;13.686;2023-04-01T13:08:56;18.50;66.80
64705;DHT22;51131;52.298;13.686;2023-04-01T13:11:35;18.50;67.50
64705;DHT22;51131;52.298;13.686;2023-04-01T13:14:10;18.50;66.80
64705;DHT22;51131;52.298;13.686;2023-04-01T13:16:57;18.50;66.70
64705;DHT22;51131;52.298;13.686;2023-04-01T13:19:31;18.40;66.30
64705;DHT22;51131;52.298;13.686;2023-04-01T13:22:15;18.40;67.00
64705;DHT22;51131;52.298;13.686;2023-04-01T13:24:51;18.40;67.30
64705;DHT22;51131;52.298;13.686;2023-04-01T13:32:43;18.50;67.10
64705;DHT22;51131;52.298;13.686;2023-04-01T13:35:56;18.60;67.50
64705;DHT22;51131;52.298;13.686;2023-04-01T13:40:47;18.60;67.80
64705;DHT22;51131;52.298;13.686;2023-04-01T13:43:34;18.70;67.10
64705;DHT22;51131;52.298;13.686;2023-04-01T13:48:58;18.70;69.60
64705;DHT22;51131;52.298;13.686;2023-04-01T13:51:34;18.60;68.60
64705;DHT22;51131;52.298;13.686;2023-04-01T14:01:48;18.50;69.00
64705;DHT22;51131;52.298;13.686;2023-04-01T14:04:27;18.50;68.40
64705;DHT22;51131;52.298;13.686;2023-04-01T14:07:06;18.50;68.90
64705;DHT22;51131;52.298;13.686;2023-04-01T14:12:26;18.50;67.90
64705;DHT22;51131;52.298;13.686;2023-04-01T14:15:00;18.50;67.50
64705;DHT22;51131;52.298;13.686;2023-04-01T14:17:39;18.50;68.10
64705;DHT22;51131;52.298;13.686;2023-04-01T14:35:38;18.40;66.60
64705;DHT22;51131;52.298;13.686;2023-04-01T14:38:22;18.40;68.10
64705;DHT22;51131;52.298;13.686;2023-04-01T14:49:02;18.40;67.40
64705;DHT22;51131;52.298;13.686;2023-04-01T14:51:34;18.40;67.90
64705;DHT22;51131;52.298;13.686;2023-04-01T14:56:50;18.40;67.40
64705;DHT22;51131;52.298;13.686;2023-04-01T15:09:44;18.60;67.30
64705;DHT22;51131;52.298;13.686;2023-04-01T15:12:18;18.60;71.00
64705;DHT22;51131;52.298;13.686;2023-04-01T15:27:39;18.40;67.40
64705;DHT22;51131;52.298;13.686;2023-04-01T15:30:28;18.40;68.30
64705;DHT22;51131;52.298;13.686;2023-04-01T15:38:20;18.40;67.60
64705;DHT22;51131;52.298;13.686;2023-04-01T15:41:01;18.40;67.20
64705;DHT22;51131;52.298;13.686;2023-04-01T15:43:47;18.40;68.00
64705;DHT22;51131;52.298;13.686;2023-04-01T15:49:07;18.30;67.00
64705;DHT22;51131;52.298;13.686;2023-04-01T15:52:03;18.30;66.60
64705;DHT22;51131;52.298;13.686;2023-04-01T15:54:38;18.30;67.00
64705;DHT22;51131;52.298;13.686;2023-04-01T16:10:16;18.30;66.50
64705;DHT22;51131;52.298;13.686;2023-04-01T16:12:48;18.30;67.20
64705;DHT22;51131;52.298;13.686;2023-04-01T16:15:20;18.30;67.50
64705;DHT22;51131;52.298;13.686;2023-04-01T16:20:19;18.30;67.20
64705;DHT22;51131;52.298;13.686;2023-04-01T16:22:59;18.20;65.90
64705;DHT22;51131;52.298;13.686;2023-04-01T16:28:03;18.20;66.20
64705;DHT22;51131;52.298;13.686;2023-04-01T16:30:40;18.30;66.70
64705;DHT22;51131;52.298;13.686;2023-04-01T16:33:11;18.30;65.60
64705;DHT22;51131;52.298;13.686;2023-04-01T16:38:25;18.30;65.60
64705;DHT22;51131;52.298;13.686;2023-04-01T16:40:58;18.30;65.50
64705;DHT22;51131;52.298;13.686;2023-04-01T16:49:00;18.40;66.50
64705;DHT22;51131;52.298;13.686;2023-04-01T16:51:32;18.40;66.80
64705;DHT22;51131;52.298;13.686;2023-04-01T16:54:18;18.40;68.30
64705;DHT22;51131;52.298;13.686;2023-04-01T16:56:56;18.40;68.30
64705;DHT22;51131;52.298;13.686;2023-04-01T16:59:35;18.40;68.10
64705;DHT22;51131;52.298;13.686;2023-04-01T17:02:04;18.40;68.10
64705;DHT22;51131;52.298;13.686;2023-04-01T17:04:57;18.40;67.80
64705;DHT22;51131;52.298;13.686;2023-04-01T17:07:32;18.30;67.50
64705;DHT22;51131;52.298;13.686;2023-04-01T17:10:11;18.30;66.30
64705;DHT22;51131;52.298;13.686;2023-04-01T17:13:06;18.30;66.40
64705;DHT22;51131;52.298;13.686;2023-04-01T17:15:52;18.20;66.40
64705;DHT22;51131;52.298;13.686;2023-04-01T17:20:56;18.30;65.90
64705;DHT22;51131;52.298;13.686;2023-04-01T17:23:27;18.30;66.80
64705;DHT22;51131;52.298;13.686;2023-04-01T17:25:59;18.30;67.00
64705;DHT22;51131;52.298;13.686;2023-04-01T17:28:32;18.20;67.20
64705;DHT22;51131;52.298;13.686;2023-04-01T17:31:07;18.20;66.80
64705;DHT22;51131;52.298;13.686;2023-04-01T17:33:41;18.20;66.10
64705;DHT22;51131;52.298;13.686;2023-04-01T17:54:47;18.20;65.20
64705;DHT22;51131;52.298;13.686;2023-04-01T17:59:56;18.20;66.40
64705;DHT22;51131;52.298;13.686;2023-04-01T18:02:37;18.40;67.60
64705;DHT22;51131;52.298;13.686;2023-04-01T18:07:42;18.30;66.00
64705;DHT22;51131;52.298;13.686;2023-04-01T18:10:16;18.30;68.00
64705;DHT22;51131;52.298;13.686;2023-04-01T18:15:45;18.40;67.60
64705;DHT22;51131;52.298;13.686;2023-04-01T18:20:58;18.40;66.80
64705;DHT22;51131;52.298;13.686;2023-04-01T18:23:39;18.40;68.60
64705;DHT22;51131;52.298;13.686;2023-04-01T18:27:00;18.40;68.10
64705;DHT22;51131;52.298;13.686;2023-04-01T18:31:48;18.40;67.40
64705;DHT22;51131;52.298;13.686;2023-04-01T18:34:31;18.50;66.40
64705;DHT22;51131;52.298;13.686;2023-04-01T18:39:59;18.40;66.60
64705;DHT22;51131;52.298;13.686;2023-04-01T18:47:47;18.30;65.50
64705;DHT22;51131;52.298;13.686;2023-04-01T18:50:33;18.70;65.70
64705;DHT22;51131;52.298;13.686;2023-04-01T19:03:41;18.10;63.60
64705;DHT22;51131;52.298;13.686;2023-04-01T19:06:30;17.90;63.50
64705;DHT22;51131;52.298;13.686;2023-04-01T19:09:00;18.10;63.80
64705;DHT22;51131;52.298;13.686;2023-04-01T19:11:38;18.40;63.90
64705;DHT22;51131;52.298;13.686;2023-04-01T19:16:44;18.10;63.70
64705;DHT22;51131;52.298;13.686;2023-04-01T19:19:20;18.10;63.80
64705;DHT22;51131;52.298;13.686;2023-04-01T19:21:53;18.10;63.20
64705;DHT22;51131;52.298;13.686;2023-04-01T19:27:24;18.10;63.90
64705;DHT22;51131;52.298;13.686;2023-04-01T19:37:32;18.10;63.50
64705;DHT22;51131;52.298;13.686;2023-04-01T19:50:18;18.10;63.10
64705;DHT22;51131;52.298;13.686;2023-04-01T19:52:47;18.10;62.90
64705;DHT22;51131;52.298;13.686;2023-04-01T19:58:05;18.10;62.40
64705;DHT22;51131;52.298;13.686;2023-04-01T20:00:36;18.10;63.60
64705;DHT22;51131;52.298;13.686;2023-04-01T20:03:05;18.10;63.80
64705;DHT22;51131;52.298;13.686;2023-04-01T20:10:54;18.30;64.70
64705;DHT22;51131;52.298;13.686;2023-04-01T20:13:45;18.30;63.50
64705;DHT22;51131;52.298;13.686;2023-04-01T20:16:14;18.40;64.00
64705;DHT22;51131;52.298;13.686;2023-04-01T20:18:46;18.30;65.40
64705;DHT22;51131;52.298;13.686;2023-04-01T20:26:34;18.20;63.80
64705;DHT22;51131;52.298;13.686;2023-04-01T20:29:14;18.20;63.60
64705;DHT22;51131;52.298;13.686;2023-04-01T20:31:42;18.10;63.40
64705;DHT22;51131;52.298;13.686;2023-04-01T20:34:13;18.10;63.00
64705;DHT22;51131;52.298;13.686;2023-04-01T20:39:33;18.10;62.90
64705;DHT22;51131;52.298;13.686;2023-04-01T20:44:53;18.10;62.50
64705;DHT22;51131;52.298;13.686;2023-04-01T20:52:29;18.10;62.70
64705;DHT22;51131;52.298;13.686;2023-04-01T20:55:13;18.10;62.20
64705;DHT22;51131;52.298;13.686;2023-04-01T21:02:59;18.00;61.80
64705;DHT22;51131;52.298;13.686;2023-04-01T21:08:18;18.00;61.30
64705;DHT22;51131;52.298;13.686;2023-04-01T21:11:09;17.90;61.70
64705;DHT22;51131;52.298;13.686;2023-04-01T21:21:50;18.00;61.30
64705;DHT22;51131;52.298;13.686;2023-04-01T21:37:30;18.00;61.60
64705;DHT22;51131;52.298;13.686;2023-04-01T21:45:20;18.00;61.50
64705;DHT22;51131;52.298;13.686;2023-04-01T21:50:37;17.90;61.50
64705;DHT22;51131;52.298;13.686;2023-04-01T22:19:06;17.90;60.90
64705;DHT22;51131;52.298;13.686;2023-04-01T22:21:38;17.90;60.90
64705;DHT22;51131;52.298;13.686;2023-04-01T22:24:20;17.90;60.80
64705;DHT22;51131;52.298;13.686;2023-04-01T22:29:29;17.90;61.10
64705;DHT22;51131;52.298;13.686;2023-04-01T22:34:28;17.90;61.20
64705;DHT22;51131;52.298;13.686;2023-04-01T22:39:50;17.90;60.90
64705;DHT22;51131;52.298;13.686;2023-04-01T22:42:28;17.90;61.10
64705;DHT22;51131;52.298;13.686;2023-04-01T22:48:01;17.90;60.70
64705;DHT22;51131;52.298;13.686;2023-04-01T22:50:39;17.90;60.60
64705;DHT22;51131;52.298;13.686;2023-04-01T22:55:33;17.90;60.80
64705;DHT22;51131;52.298;13.686;2023-04-01T22:58:04;18.00;60.90
64705;DHT22;51131;52.298;13.686;2023-04-01T23:00:35;18.10;60.70
64705;DHT22;51131;52.298;13.686;2023-04-01T23:03:17;18.20;60.90
64705;DHT22;51131;52.298;13.686;2023-04-01T23:05:55;18.10;60.70
64705;DHT22;51131;52.298;13.686;2023-04-01T23:08:37;18.10;60.70
64705;DHT22;51131;52.298;13.686;2023-04-01T23:11:24;18.10;60.60
64705;DHT22;51131;52.298;13.686;2023-04-01T23:13:53;18.00;60.70
64705;DHT22;51131;52.298;13.686;2023-04-01T23:17:00;18.00;60.70
64705;DHT22;51131;52.298;13.686;2023-04-01T23:19:24;18.00;60.70
64705;DHT22;51131;52.298;13.686;2023-04-01T23:22:04;18.00;60.90
64705;DHT22;51131;52.298;13.686;2023-04-01T23:24:33;18.00;60.80
64705;DHT22;51131;52.298;13.686;2023-04-01T23:27:06;18.00;61.20
64705;DHT22;51131;52.298;13.686;2023-04-01T23:29:35;17.90;60.90
64705;DHT22;51131;52.298;13.686;2023-04-01T23:32:03;17.90;61.20
64705;DHT22;51131;52.298;13.686;2023-04-01T23:34:33;17.90;60.70
64705;DHT22;51131;52.298;13.686;2023-04-01T23:37:04;17.90;60.30
64705;DHT22;51131;52.298;13.686;2023-04-01T23:39:36;17.90;60.50
64705;DHT22;51131;52.298;13.686;2023-04-01T23:42:05;17.90;60.30
64705;DHT22;51131;52.298;13.686;2023-04-01T23:44:32;17.90;60.20
64705;DHT22;51131;52.298;13.686;2023-04-01T23:46:59;17.90;59.70
64705;DHT22;51131;52.298;13.686;2023-04-01T23:49:29;17.90;60.20
64705;DHT22;51131;52.298;13.686;2023-04-01T23:51:58;17.90;60.20
64705;DHT22;51131;52.298;13.686;2023-04-01T23:54:48;17.90;60.20
64705;DHT22;51131;52.298;13.686;2023-04-01T23:57:16;17.90;59.90
64705;DHT22;51131;52.298;13.686;2023-04-01T23:59:46;17.90;60.40
